Terminal Aerodrome Forecast
Issued by NWS Norman, OK

Home | Current Version | Previous Version | Text Only | Print | Product List | Glossary On
Versions: 1 2 3 4 5 6 7 8 9 10 11 12 13
000
FTUS44 KOUN 261731
TAFOKC
TAF
KOKC 261731Z 2618/2718 01011KT 5SM RA BKN007 OVC025
     FM262300 02010KT 4SM BR OVC005
     FM270400 03008KT 3SM -SHRA OVC007=

USA.gov is the U.S. government's official web portal to all federal, state and local government web resources and services.